Impacts METAR Board
IDs:

KIAH - Houston/Bush Intl, TX, US

Updated at: 2300 UTC 01 Mar 2021
Potential Impact None Slight Moderate High
Time 01/11Z 01/12Z 01/13Z 01/14Z 01/15Z 01/16Z 01/17Z 01/18Z 01/19Z 01/20Z 01/21Z 01/22Z 01/23Z
Temp72 71 72 62 59 60 61 60 60 59 59 58 58
Dewpt69 68 69 60 56 55 54 54 52 51 51 51 50
Altim29.91 29.91 29.94 30.00 30.04 30.06 30.06 30.09 30.08 30.08 30.08 30.05 30.09
VIS6 7 6 5 4 10 10 7 10 10 10 10 10
CIG8 8 9 5 5 10 13 14 13 13 14 14 18
CoverOVCOVCOVCOVCOVCOVCOVCOVCOVCOVCOVCOVCOVC
FltCatIFRIFRIFRIFRIFRMVFRMVFRMVFRMVFRMVFRMVFRMVFRMVFR
WXBR--BR-RA BR-DZ BR----RA----------
WDir1600032033036020203030305030
WSpd3 0 0 11 12 16 18 17 18 18 16 18 16
WGst-- -- -- -- -- -- 24 25 23 23 -- -- 26
Raw hourly METARs
KIAH 011053Z 16003KT 6SM BR BKN008 OVC021 22/21 A2991 RMK AO2 SLP127 T02220206
KIAH 011153Z 00000KT 7SM BKN008 OVC016 22/20 A2991 RMK AO2 SLP129 T02170200 10228 20217 53003
KIAH 011253Z 00000KT 6SM BR BKN009 OVC014 22/21 A2994 RMK AO2 SLP138 T02220206
KIAH 011353Z 32011KT 5SM -RA BR OVC005 17/16 A3000 RMK AO2 RAB03 SLP158 VIS NW-N 1 P0004 T01670156
KIAH 011453Z 33012KT 4SM -DZ BR OVC005 15/13 A3004 RMK AO2 RAE08DZB52 SLP170 P0000 60004 T01500133 53042
KIAH 011553Z 36016KT 10SM OVC010 16/13 A3006 RMK AO2 DZE23 SLP179 P0000 T01560128
KIAH 011653Z 02018G24KT 10SM BKN013 OVC027 16/12 A3006 RMK AO2 PK WND 01026/1616 SLP180 T01610122
KIAH 011753Z 02017G25KT 7SM RA OVC014 16/12 A3009 RMK AO2 PK WND 02028/1724 RAB50 SLP189 P0000 60004 T01560122 10222 20144 51018
KIAH 011853Z 03018G23KT 10SM OVC013 16/11 A3008 RMK AO2 PK WND 01031/1800 RAE28 SLP184 P0000 T01560111
KIAH 011953Z 03018G23KT 10SM OVC013 15/11 A3008 RMK AO2 PK WND 04027/1920 SLP184 T01500106
KIAH 012053Z 03016KT 10SM OVC014 15/11 A3008 RMK AO2 PK WND 03028/2028 SLP185 60000 T01500106 55003
KIAH 012153Z 05018KT 10SM OVC014 14/11 A3005 RMK AO2 PK WND 04028/2133 SLP177 T01440106
KIAH 012253Z 03016G26KT 10SM OVC018 14/10 A3009 RMK AO2 PK WND 04026/2235 LTG DSNT N SLP189 T01440100



Page loaded:  23:30 UTC  |   03:30 PM Pacific  |   04:30 PM Mountain  |   05:30 PM Central  |   06:30 PM Eastern

 

ADVISORIES

FORECASTS

FORECASTS

OBSERVATIONS

USER TOOLS

ABOUT US